sensor_id;sensor_type;location;lat;lon;timestamp;temperature;humidity
73547;SHT30;61807;48.384;-4.386;2023-07-13T00:01:42;18.44;74.44
73547;SHT30;61807;48.384;-4.386;2023-07-13T00:04:08;18.45;74.39
73547;SHT30;61807;48.384;-4.386;2023-07-13T00:06:34;18.47;74.36
73547;SHT30;61807;48.384;-4.386;2023-07-13T00:09:00;18.44;74.35
73547;SHT30;61807;48.384;-4.386;2023-07-13T00:11:25;18.44;74.37
73547;SHT30;61807;48.384;-4.386;2023-07-13T00:13:51;18.44;74.26
73547;SHT30;61807;48.384;-4.386;2023-07-13T00:16:17;18.44;74.22
73547;SHT30;61807;48.384;-4.386;2023-07-13T00:18:44;18.43;74.15
73547;SHT30;61807;48.384;-4.386;2023-07-13T00:21:09;18.44;74.07
73547;SHT30;61807;48.384;-4.386;2023-07-13T00:23:36;18.43;74.15
73547;SHT30;61807;48.384;-4.386;2023-07-13T00:26:04;18.43;74.18
73547;SHT30;61807;48.384;-4.386;2023-07-13T00:28:31;18.41;74.19
73547;SHT30;61807;48.384;-4.386;2023-07-13T00:30:57;18.38;74.33
73547;SHT30;61807;48.384;-4.386;2023-07-13T00:33:22;18.38;74.24
73547;SHT30;61807;48.384;-4.386;2023-07-13T00:35:48;18.37;74.27
73547;SHT30;61807;48.384;-4.386;2023-07-13T00:38:15;18.37;74.29
73547;SHT30;61807;48.384;-4.386;2023-07-13T00:40:40;18.36;74.36
73547;SHT30;61807;48.384;-4.386;2023-07-13T00:43:13;18.36;74.37
73547;SHT30;61807;48.384;-4.386;2023-07-13T00:48:14;18.33;74.53
73547;SHT30;61807;48.384;-4.386;2023-07-13T00:50:40;18.31;74.58
73547;SHT30;61807;48.384;-4.386;2023-07-13T00:53:07;18.30;74.65
73547;SHT30;61807;48.384;-4.386;2023-07-13T00:55:33;18.30;74.67
73547;SHT30;61807;48.384;-4.386;2023-07-13T00:57:59;18.30;74.73
73547;SHT30;61807;48.384;-4.386;2023-07-13T01:00:25;18.28;74.76
73547;SHT30;61807;48.384;-4.386;2023-07-13T01:02:51;18.28;74.90
73547;SHT30;61807;48.384;-4.386;2023-07-13T01:05:20;18.28;75.05
73547;SHT30;61807;48.384;-4.386;2023-07-13T01:07:48;18.28;75.06
73547;SHT30;61807;48.384;-4.386;2023-07-13T01:10:14;18.31;75.07
73547;SHT30;61807;48.384;-4.386;2023-07-13T01:12:40;18.27;75.17
73547;SHT30;61807;48.384;-4.386;2023-07-13T01:15:45;18.28;75.18
73547;SHT30;61807;48.384;-4.386;2023-07-13T01:18:17;18.28;75.29
73547;SHT30;61807;48.384;-4.386;2023-07-13T01:23:20;18.27;75.38
73547;SHT30;61807;48.384;-4.386;2023-07-13T01:25:45;18.28;75.40
73547;SHT30;61807;48.384;-4.386;2023-07-13T01:28:11;18.26;75.37
73547;SHT30;61807;48.384;-4.386;2023-07-13T01:30:36;18.24;75.40
73547;SHT30;61807;48.384;-4.386;2023-07-13T01:33:03;18.21;75.33
73547;SHT30;61807;48.384;-4.386;2023-07-13T01:35:29;18.21;75.24
73547;SHT30;61807;48.384;-4.386;2023-07-13T01:37:54;18.21;75.00
73547;SHT30;61807;48.384;-4.386;2023-07-13T01:40:22;18.21;75.00
73547;SHT30;61807;48.384;-4.386;2023-07-13T01:42:47;18.21;74.90
73547;SHT30;61807;48.384;-4.386;2023-07-13T01:45:13;18.23;74.91
73547;SHT30;61807;48.384;-4.386;2023-07-13T01:47:38;18.24;74.91
73547;SHT30;61807;48.384;-4.386;2023-07-13T01:50:04;18.26;74.80
73547;SHT30;61807;48.384;-4.386;2023-07-13T01:52:29;18.24;74.76
73547;SHT30;61807;48.384;-4.386;2023-07-13T01:54:55;18.21;74.57
73547;SHT30;61807;48.384;-4.386;2023-07-13T01:57:20;18.21;74.61
73547;SHT30;61807;48.384;-4.386;2023-07-13T01:59:45;18.21;74.60
73547;SHT30;61807;48.384;-4.386;2023-07-13T02:02:11;18.23;74.57
73547;SHT30;61807;48.384;-4.386;2023-07-13T02:04:36;18.21;74.62
73547;SHT30;61807;48.384;-4.386;2023-07-13T02:07:02;18.23;74.70
73547;SHT30;61807;48.384;-4.386;2023-07-13T02:09:27;18.26;74.68
73547;SHT30;61807;48.384;-4.386;2023-07-13T02:11:53;18.21;74.76
73547;SHT30;61807;48.384;-4.386;2023-07-13T02:14:18;18.21;74.65
73547;SHT30;61807;48.384;-4.386;2023-07-13T02:16:44;18.18;74.77
73547;SHT30;61807;48.384;-4.386;2023-07-13T02:19:09;18.20;74.79
73547;SHT30;61807;48.384;-4.386;2023-07-13T02:21:34;18.23;74.88
73547;SHT30;61807;48.384;-4.386;2023-07-13T02:24:00;18.20;74.83
73547;SHT30;61807;48.384;-4.386;2023-07-13T02:26:26;18.18;74.90
73547;SHT30;61807;48.384;-4.386;2023-07-13T02:28:52;18.21;74.95
73547;SHT30;61807;48.384;-4.386;2023-07-13T02:31:17;18.16;75.01
73547;SHT30;61807;48.384;-4.386;2023-07-13T02:33:43;18.17;75.10
73547;SHT30;61807;48.384;-4.386;2023-07-13T02:36:09;18.18;75.21
73547;SHT30;61807;48.384;-4.386;2023-07-13T02:38:35;18.17;75.25
73547;SHT30;61807;48.384;-4.386;2023-07-13T02:41:05;18.20;75.35
73547;SHT30;61807;48.384;-4.386;2023-07-13T02:43:31;18.17;75.33
73547;SHT30;61807;48.384;-4.386;2023-07-13T02:45:56;18.17;75.45
73547;SHT30;61807;48.384;-4.386;2023-07-13T02:48:25;18.16;75.50
73547;SHT30;61807;48.384;-4.386;2023-07-13T02:50:51;18.14;75.52
73547;SHT30;61807;48.384;-4.386;2023-07-13T02:53:16;18.13;75.53
73547;SHT30;61807;48.384;-4.386;2023-07-13T02:55:41;18.13;75.60
73547;SHT30;61807;48.384;-4.386;2023-07-13T02:58:12;18.14;75.71
73547;SHT30;61807;48.384;-4.386;2023-07-13T03:00:43;18.11;75.68
73547;SHT30;61807;48.384;-4.386;2023-07-13T03:03:09;18.14;75.78
73547;SHT30;61807;48.384;-4.386;2023-07-13T03:05:34;18.14;75.78
73547;SHT30;61807;48.384;-4.386;2023-07-13T03:07:59;18.14;75.75
73547;SHT30;61807;48.384;-4.386;2023-07-13T03:10:25;18.16;75.73
73547;SHT30;61807;48.384;-4.386;2023-07-13T03:12:51;18.18;75.74
73547;SHT30;61807;48.384;-4.386;2023-07-13T03:15:16;18.17;75.74
73547;SHT30;61807;48.384;-4.386;2023-07-13T03:17:41;18.17;75.73
73547;SHT30;61807;48.384;-4.386;2023-07-13T03:20:07;18.16;75.71
73547;SHT30;61807;48.384;-4.386;2023-07-13T03:22:33;18.17;75.76
73547;SHT30;61807;48.384;-4.386;2023-07-13T03:24:58;18.17;75.79
73547;SHT30;61807;48.384;-4.386;2023-07-13T03:27:24;18.20;75.82
73547;SHT30;61807;48.384;-4.386;2023-07-13T03:29:49;18.20;75.87
73547;SHT30;61807;48.384;-4.386;2023-07-13T03:32:14;18.21;75.84
73547;SHT30;61807;48.384;-4.386;2023-07-13T03:34:40;18.23;75.96
73547;SHT30;61807;48.384;-4.386;2023-07-13T03:37:05;18.21;75.93
73547;SHT30;61807;48.384;-4.386;2023-07-13T03:39:31;18.24;75.95
73547;SHT30;61807;48.384;-4.386;2023-07-13T03:41:56;18.24;75.99
73547;SHT30;61807;48.384;-4.386;2023-07-13T03:44:22;18.26;76.01
73547;SHT30;61807;48.384;-4.386;2023-07-13T03:46:47;18.26;76.04
73547;SHT30;61807;48.384;-4.386;2023-07-13T03:49:12;18.27;76.06
73547;SHT30;61807;48.384;-4.386;2023-07-13T03:51:38;18.24;76.08
73547;SHT30;61807;48.384;-4.386;2023-07-13T03:54:03;18.24;76.14
73547;SHT30;61807;48.384;-4.386;2023-07-13T03:56:29;18.21;76.14
73547;SHT30;61807;48.384;-4.386;2023-07-13T03:58:56;18.20;76.11
73547;SHT30;61807;48.384;-4.386;2023-07-13T04:01:23;18.16;76.11
73547;SHT30;61807;48.384;-4.386;2023-07-13T04:03:50;18.20;76.10
73547;SHT30;61807;48.384;-4.386;2023-07-13T04:06:21;18.17;76.09
73547;SHT30;61807;48.384;-4.386;2023-07-13T04:08:51;18.16;76.11
73547;SHT30;61807;48.384;-4.386;2023-07-13T04:11:18;18.17;76.09
73547;SHT30;61807;48.384;-4.386;2023-07-13T04:13:43;18.18;76.05
73547;SHT30;61807;48.384;-4.386;2023-07-13T04:16:10;18.17;76.09
73547;SHT30;61807;48.384;-4.386;2023-07-13T04:18:35;18.14;76.09
73547;SHT30;61807;48.384;-4.386;2023-07-13T04:21:01;18.18;76.01
73547;SHT30;61807;48.384;-4.386;2023-07-13T04:23:26;18.21;76.01
73547;SHT30;61807;48.384;-4.386;2023-07-13T04:25:53;18.20;75.98
73547;SHT30;61807;48.384;-4.386;2023-07-13T04:28:23;18.18;76.04
73547;SHT30;61807;48.384;-4.386;2023-07-13T04:30:49;18.21;75.98
73547;SHT30;61807;48.384;-4.386;2023-07-13T04:33:15;18.21;75.97
73547;SHT30;61807;48.384;-4.386;2023-07-13T04:35:42;18.18;76.00
73547;SHT30;61807;48.384;-4.386;2023-07-13T04:38:08;18.18;76.02
73547;SHT30;61807;48.384;-4.386;2023-07-13T04:40:36;18.18;76.01
73547;SHT30;61807;48.384;-4.386;2023-07-13T04:43:02;18.20;76.00
73547;SHT30;61807;48.384;-4.386;2023-07-13T04:45:28;18.18;76.02
73547;SHT30;61807;48.384;-4.386;2023-07-13T04:47:53;18.20;76.09
73547;SHT30;61807;48.384;-4.386;2023-07-13T04:50:19;18.18;76.09
73547;SHT30;61807;48.384;-4.386;2023-07-13T04:52:51;18.17;76.14
73547;SHT30;61807;48.384;-4.386;2023-07-13T04:55:18;18.17;76.18
73547;SHT30;61807;48.384;-4.386;2023-07-13T04:57:43;18.17;76.16
73547;SHT30;61807;48.384;-4.386;2023-07-13T05:00:09;18.21;76.17
73547;SHT30;61807;48.384;-4.386;2023-07-13T05:02:38;18.21;76.21
73547;SHT30;61807;48.384;-4.386;2023-07-13T05:05:03;18.23;76.25
73547;SHT30;61807;48.384;-4.386;2023-07-13T05:07:29;18.18;76.20
73547;SHT30;61807;48.384;-4.386;2023-07-13T05:09:55;18.24;76.15
73547;SHT30;61807;48.384;-4.386;2023-07-13T05:12:20;18.24;76.21
73547;SHT30;61807;48.384;-4.386;2023-07-13T05:14:46;18.24;76.26
73547;SHT30;61807;48.384;-4.386;2023-07-13T05:17:11;18.24;76.29
73547;SHT30;61807;48.384;-4.386;2023-07-13T05:19:37;18.24;76.26
73547;SHT30;61807;48.384;-4.386;2023-07-13T05:22:02;18.24;76.15
73547;SHT30;61807;48.384;-4.386;2023-07-13T05:24:29;18.26;76.19
73547;SHT30;61807;48.384;-4.386;2023-07-13T05:26:54;18.28;76.22
73547;SHT30;61807;48.384;-4.386;2023-07-13T05:29:21;18.30;76.25
73547;SHT30;61807;48.384;-4.386;2023-07-13T05:31:47;18.28;76.23
73547;SHT30;61807;48.384;-4.386;2023-07-13T05:34:12;18.28;76.29
73547;SHT30;61807;48.384;-4.386;2023-07-13T05:36:38;18.31;76.37
73547;SHT30;61807;48.384;-4.386;2023-07-13T05:39:03;18.34;76.36
73547;SHT30;61807;48.384;-4.386;2023-07-13T05:41:29;18.34;76.38
73547;SHT30;61807;48.384;-4.386;2023-07-13T05:43:54;18.36;76.39
73547;SHT30;61807;48.384;-4.386;2023-07-13T05:46:20;18.37;76.50
73547;SHT30;61807;48.384;-4.386;2023-07-13T05:48:45;18.36;76.46
73547;SHT30;61807;48.384;-4.386;2023-07-13T05:51:11;18.37;76.50
73547;SHT30;61807;48.384;-4.386;2023-07-13T05:53:36;18.40;76.52
73547;SHT30;61807;48.384;-4.386;2023-07-13T05:56:01;18.43;76.50
73547;SHT30;61807;48.384;-4.386;2023-07-13T05:58:27;18.43;76.50
73547;SHT30;61807;48.384;-4.386;2023-07-13T06:01:00;18.41;76.49
73547;SHT30;61807;48.384;-4.386;2023-07-13T06:03:26;18.45;76.50
73547;SHT30;61807;48.384;-4.386;2023-07-13T06:05:51;18.47;76.51
73547;SHT30;61807;48.384;-4.386;2023-07-13T06:08:16;18.47;76.47
73547;SHT30;61807;48.384;-4.386;2023-07-13T06:10:42;18.45;76.45
73547;SHT30;61807;48.384;-4.386;2023-07-13T06:13:07;18.50;76.45
73547;SHT30;61807;48.384;-4.386;2023-07-13T06:15:33;18.50;76.44
73547;SHT30;61807;48.384;-4.386;2023-07-13T06:17:58;18.54;76.44
73547;SHT30;61807;48.384;-4.386;2023-07-13T06:20:23;18.52;76.38
73547;SHT30;61807;48.384;-4.386;2023-07-13T06:22:49;18.54;76.42
73547;SHT30;61807;48.384;-4.386;2023-07-13T06:25:15;18.58;76.35
73547;SHT30;61807;48.384;-4.386;2023-07-13T06:27:40;18.61;76.30
73547;SHT30;61807;48.384;-4.386;2023-07-13T06:30:06;18.62;76.17
73547;SHT30;61807;48.384;-4.386;2023-07-13T06:32:31;18.64;76.10
73547;SHT30;61807;48.384;-4.386;2023-07-13T06:34:57;18.64;75.88
73547;SHT30;61807;48.384;-4.386;2023-07-13T06:37:22;18.65;75.82
73547;SHT30;61807;48.384;-4.386;2023-07-13T06:39:47;18.65;75.82
73547;SHT30;61807;48.384;-4.386;2023-07-13T06:42:13;18.64;75.77
73547;SHT30;61807;48.384;-4.386;2023-07-13T06:44:38;18.65;75.81
73547;SHT30;61807;48.384;-4.386;2023-07-13T06:47:04;18.67;75.94
73547;SHT30;61807;48.384;-4.386;2023-07-13T06:49:29;18.72;75.93
73547;SHT30;61807;48.384;-4.386;2023-07-13T06:51:55;18.68;75.92
73547;SHT30;61807;48.384;-4.386;2023-07-13T06:54:20;18.69;75.86
73547;SHT30;61807;48.384;-4.386;2023-07-13T06:56:45;18.68;75.90
73547;SHT30;61807;48.384;-4.386;2023-07-13T06:59:11;18.68;76.12
73547;SHT30;61807;48.384;-4.386;2023-07-13T07:01:36;18.65;76.25
73547;SHT30;61807;48.384;-4.386;2023-07-13T07:04:03;18.62;76.40
73547;SHT30;61807;48.384;-4.386;2023-07-13T07:06:28;18.62;76.56
73547;SHT30;61807;48.384;-4.386;2023-07-13T07:08:54;18.61;76.63
73547;SHT30;61807;48.384;-4.386;2023-07-13T07:11:23;18.64;76.68
73547;SHT30;61807;48.384;-4.386;2023-07-13T07:13:49;18.71;76.77
73547;SHT30;61807;48.384;-4.386;2023-07-13T07:16:15;18.73;76.87
73547;SHT30;61807;48.384;-4.386;2023-07-13T07:18:41;18.78;76.89
73547;SHT30;61807;48.384;-4.386;2023-07-13T07:21:07;18.82;76.82
73547;SHT30;61807;48.384;-4.386;2023-07-13T07:23:32;18.85;76.70
73547;SHT30;61807;48.384;-4.386;2023-07-13T07:25:58;18.89;76.77
73547;SHT30;61807;48.384;-4.386;2023-07-13T07:28:24;19.00;76.59
73547;SHT30;61807;48.384;-4.386;2023-07-13T07:30:52;19.12;76.75
73547;SHT30;61807;48.384;-4.386;2023-07-13T07:33:18;19.24;76.48
73547;SHT30;61807;48.384;-4.386;2023-07-13T07:35:43;19.31;76.54
73547;SHT30;61807;48.384;-4.386;2023-07-13T07:38:09;19.36;76.50
73547;SHT30;61807;48.384;-4.386;2023-07-13T07:40:39;19.37;76.41
73547;SHT30;61807;48.384;-4.386;2023-07-13T07:43:06;19.43;76.40
73547;SHT30;61807;48.384;-4.386;2023-07-13T07:45:31;19.47;76.34
73547;SHT30;61807;48.384;-4.386;2023-07-13T07:47:57;19.50;76.19
73547;SHT30;61807;48.384;-4.386;2023-07-13T07:50:25;19.50;76.07
73547;SHT30;61807;48.384;-4.386;2023-07-13T07:52:50;19.54;76.11
73547;SHT30;61807;48.384;-4.386;2023-07-13T07:55:16;19.57;76.12
73547;SHT30;61807;48.384;-4.386;2023-07-13T07:57:41;19.57;76.04
73547;SHT30;61807;48.384;-4.386;2023-07-13T08:00:07;19.60;76.03
73547;SHT30;61807;48.384;-4.386;2023-07-13T08:02:33;19.58;75.97
73547;SHT30;61807;48.384;-4.386;2023-07-13T08:04:58;19.57;75.88
73547;SHT30;61807;48.384;-4.386;2023-07-13T08:07:24;19.53;75.88
73547;SHT30;61807;48.384;-4.386;2023-07-13T08:09:52;19.50;75.81
73547;SHT30;61807;48.384;-4.386;2023-07-13T08:12:17;19.43;75.99
73547;SHT30;61807;48.384;-4.386;2023-07-13T08:14:43;19.40;75.89
73547;SHT30;61807;48.384;-4.386;2023-07-13T08:17:08;19.37;75.93
73547;SHT30;61807;48.384;-4.386;2023-07-13T08:19:34;19.31;75.99
73547;SHT30;61807;48.384;-4.386;2023-07-13T08:21:59;19.31;76.01
73547;SHT30;61807;48.384;-4.386;2023-07-13T08:24:24;19.24;76.21
73547;SHT30;61807;48.384;-4.386;2023-07-13T08:26:51;19.20;76.46
73547;SHT30;61807;48.384;-4.386;2023-07-13T08:29:17;19.08;76.66
73547;SHT30;61807;48.384;-4.386;2023-07-13T08:31:42;19.00;76.82
73547;SHT30;61807;48.384;-4.386;2023-07-13T08:34:08;18.95;77.01
73547;SHT30;61807;48.384;-4.386;2023-07-13T08:36:33;18.94;77.20
73547;SHT30;61807;48.384;-4.386;2023-07-13T08:38:58;18.92;77.35
73547;SHT30;61807;48.384;-4.386;2023-07-13T08:41:24;18.99;77.54
73547;SHT30;61807;48.384;-4.386;2023-07-13T08:43:52;18.96;77.63
73547;SHT30;61807;48.384;-4.386;2023-07-13T08:48:58;19.02;77.81
73547;SHT30;61807;48.384;-4.386;2023-07-13T08:51:35;19.09;77.96
73547;SHT30;61807;48.384;-4.386;2023-07-13T08:54:05;19.13;77.54
73547;SHT30;61807;48.384;-4.386;2023-07-13T08:56:34;19.13;77.32
73547;SHT30;61807;48.384;-4.386;2023-07-13T08:59:11;19.15;77.18
73547;SHT30;61807;48.384;-4.386;2023-07-13T09:04:16;19.24;77.40
73547;SHT30;61807;48.384;-4.386;2023-07-13T09:06:58;19.33;77.39
73547;SHT30;61807;48.384;-4.386;2023-07-13T09:15:29;19.41;77.12
73547;SHT30;61807;48.384;-4.386;2023-07-13T09:18:45;19.46;77.21
73547;SHT30;61807;48.384;-4.386;2023-07-13T09:20:51;19.49;76.89
73547;SHT30;61807;48.384;-4.386;2023-07-13T09:23:21;19.49;76.89
73547;SHT30;61807;48.384;-4.386;2023-07-13T09:25:51;19.50;77.08
73547;SHT30;61807;48.384;-4.386;2023-07-13T09:28:26;19.49;77.10
73547;SHT30;61807;48.384;-4.386;2023-07-13T09:31:03;19.51;77.01
73547;SHT30;61807;48.384;-4.386;2023-07-13T09:33:29;19.57;77.04
73547;SHT30;61807;48.384;-4.386;2023-07-13T09:35:59;19.64;76.98
73547;SHT30;61807;48.384;-4.386;2023-07-13T09:38:26;19.75;76.81
73547;SHT30;61807;48.384;-4.386;2023-07-13T09:41:04;19.85;76.56
73547;SHT30;61807;48.384;-4.386;2023-07-13T09:43:34;19.96;76.27
73547;SHT30;61807;48.384;-4.386;2023-07-13T09:46:00;20.06;76.30
73547;SHT30;61807;48.384;-4.386;2023-07-13T09:48:34;20.14;76.11
73547;SHT30;61807;48.384;-4.386;2023-07-13T09:51:07;20.15;75.95
73547;SHT30;61807;48.384;-4.386;2023-07-13T09:53:38;20.11;75.68
73547;SHT30;61807;48.384;-4.386;2023-07-13T09:56:03;20.12;75.74
73547;SHT30;61807;48.384;-4.386;2023-07-13T09:58:30;20.21;75.55
73547;SHT30;61807;48.384;-4.386;2023-07-13T10:01:04;20.36;75.75
73547;SHT30;61807;48.384;-4.386;2023-07-13T10:03:34;20.56;76.03
73547;SHT30;61807;48.384;-4.386;2023-07-13T10:06:16;20.73;75.39
73547;SHT30;61807;48.384;-4.386;2023-07-13T10:08:44;20.77;75.24
73547;SHT30;61807;48.384;-4.386;2023-07-13T10:11:16;20.83;75.60
73547;SHT30;61807;48.384;-4.386;2023-07-13T10:13:46;21.07;75.37
73547;SHT30;61807;48.384;-4.386;2023-07-13T10:16:14;21.17;75.03
73547;SHT30;61807;48.384;-4.386;2023-07-13T10:18:48;21.14;75.06
73547;SHT30;61807;48.384;-4.386;2023-07-13T10:21:19;21.11;74.86
73547;SHT30;61807;48.384;-4.386;2023-07-13T10:24:05;21.03;74.63
73547;SHT30;61807;48.384;-4.386;2023-07-13T10:26:33;21.05;74.91
73547;SHT30;61807;48.384;-4.386;2023-07-13T10:29:05;21.14;74.99
73547;SHT30;61807;48.384;-4.386;2023-07-13T10:31:40;21.32;75.09
73547;SHT30;61807;48.384;-4.386;2023-07-13T10:34:10;21.46;74.48
73547;SHT30;61807;48.384;-4.386;2023-07-13T10:36:43;21.58;73.82
73547;SHT30;61807;48.384;-4.386;2023-07-13T10:39:24;21.59;73.79
73547;SHT30;61807;48.384;-4.386;2023-07-13T10:41:54;21.52;73.48
73547;SHT30;61807;48.384;-4.386;2023-07-13T10:44:26;21.43;73.36
73547;SHT30;61807;48.384;-4.386;2023-07-13T10:47:11;21.37;73.47
73547;SHT30;61807;48.384;-4.386;2023-07-13T10:49:40;21.37;73.70
73547;SHT30;61807;48.384;-4.386;2023-07-13T10:52:46;21.42;73.90
73547;SHT30;61807;48.384;-4.386;2023-07-13T10:58:13;21.35;73.43
73547;SHT30;61807;48.384;-4.386;2023-07-13T11:01:02;21.22;73.58
73547;SHT30;61807;48.384;-4.386;2023-07-13T11:03:30;21.18;73.62
73547;SHT30;61807;48.384;-4.386;2023-07-13T11:06:29;21.08;73.41
73547;SHT30;61807;48.384;-4.386;2023-07-13T11:08:58;20.97;73.53
73547;SHT30;61807;48.384;-4.386;2023-07-13T11:18:51;21.07;73.79
73547;SHT30;61807;48.384;-4.386;2023-07-13T11:21:25;21.20;73.65
73547;SHT30;61807;48.384;-4.386;2023-07-13T11:24:05;21.28;73.15
73547;SHT30;61807;48.384;-4.386;2023-07-13T11:29:38;21.58;72.97
73547;SHT30;61807;48.384;-4.386;2023-07-13T11:32:25;21.71;72.74
73547;SHT30;61807;48.384;-4.386;2023-07-13T11:34:55;21.88;72.42
73547;SHT30;61807;48.384;-4.386;2023-07-13T11:37:21;22.06;72.05
73547;SHT30;61807;48.384;-4.386;2023-07-13T11:39:50;22.24;71.35
73547;SHT30;61807;48.384;-4.386;2023-07-13T11:42:17;22.37;70.39
73547;SHT30;61807;48.384;-4.386;2023-07-13T11:44:46;22.52;69.57
73547;SHT30;61807;48.384;-4.386;2023-07-13T11:47:22;22.73;69.12
73547;SHT30;61807;48.384;-4.386;2023-07-13T11:49:51;22.87;68.71
73547;SHT30;61807;48.384;-4.386;2023-07-13T11:52:22;22.96;68.48
73547;SHT30;61807;48.384;-4.386;2023-07-13T11:54:54;22.99;67.90
73547;SHT30;61807;48.384;-4.386;2023-07-13T11:57:33;22.96;67.47
73547;SHT30;61807;48.384;-4.386;2023-07-13T12:00:03;22.95;67.31
73547;SHT30;61807;48.384;-4.386;2023-07-13T12:02:40;22.99;67.67
73547;SHT30;61807;48.384;-4.386;2023-07-13T12:05:11;23.05;67.90
73547;SHT30;61807;48.384;-4.386;2023-07-13T12:07:38;23.05;67.63
73547;SHT30;61807;48.384;-4.386;2023-07-13T12:10:23;23.13;67.75
73547;SHT30;61807;48.384;-4.386;2023-07-13T12:13:02;23.23;67.39
73547;SHT30;61807;48.384;-4.386;2023-07-13T12:15:39;23.33;67.03
73547;SHT30;61807;48.384;-4.386;2023-07-13T12:18:18;23.40;66.07
73547;SHT30;61807;48.384;-4.386;2023-07-13T12:20:44;23.49;66.13
73547;SHT30;61807;48.384;-4.386;2023-07-13T12:23:29;23.64;65.91
73547;SHT30;61807;48.384;-4.386;2023-07-13T12:25:56;23.84;65.37
73547;SHT30;61807;48.384;-4.386;2023-07-13T12:31:24;23.93;64.91
73547;SHT30;61807;48.384;-4.386;2023-07-13T12:33:57;23.82;64.81
73547;SHT30;61807;48.384;-4.386;2023-07-13T12:36:23;23.93;64.82
73547;SHT30;61807;48.384;-4.386;2023-07-13T12:38:48;24.14;64.48
73547;SHT30;61807;48.384;-4.386;2023-07-13T12:41:15;24.28;64.66
73547;SHT30;61807;48.384;-4.386;2023-07-13T12:43:40;24.62;64.52
73547;SHT30;61807;48.384;-4.386;2023-07-13T12:46:20;25.08;64.06
73547;SHT30;61807;48.384;-4.386;2023-07-13T12:48:52;25.34;62.30
73547;SHT30;61807;48.384;-4.386;2023-07-13T12:51:22;25.58;62.39
73547;SHT30;61807;48.384;-4.386;2023-07-13T12:53:55;25.89;61.77
73547;SHT30;61807;48.384;-4.386;2023-07-13T12:56:23;26.29;58.40
73547;SHT30;61807;48.384;-4.386;2023-07-13T12:58:55;26.52;58.18
73547;SHT30;61807;48.384;-4.386;2023-07-13T13:01:27;26.72;58.25
73547;SHT30;61807;48.384;-4.386;2023-07-13T13:03:53;26.74;57.45
73547;SHT30;61807;48.384;-4.386;2023-07-13T13:06:27;26.52;57.90
73547;SHT30;61807;48.384;-4.386;2023-07-13T13:08:58;26.20;57.91
73547;SHT30;61807;48.384;-4.386;2023-07-13T13:11:26;25.90;57.89
73547;SHT30;61807;48.384;-4.386;2023-07-13T13:13:53;25.78;58.30
73547;SHT30;61807;48.384;-4.386;2023-07-13T13:16:29;25.85;58.42
73547;SHT30;61807;48.384;-4.386;2023-07-13T13:18:59;26.17;58.47
73547;SHT30;61807;48.384;-4.386;2023-07-13T13:21:27;26.55;57.66
73547;SHT30;61807;48.384;-4.386;2023-07-13T13:23:53;26.71;56.46
73547;SHT30;61807;48.384;-4.386;2023-07-13T13:26:21;26.69;56.86
73547;SHT30;61807;48.384;-4.386;2023-07-13T13:28:47;26.87;56.56
73547;SHT30;61807;48.384;-4.386;2023-07-13T13:31:13;27.08;55.34
73547;SHT30;61807;48.384;-4.386;2023-07-13T13:33:41;27.06;54.93
73547;SHT30;61807;48.384;-4.386;2023-07-13T13:36:20;27.00;56.27
73547;SHT30;61807;48.384;-4.386;2023-07-13T13:38:47;27.03;56.44
73547;SHT30;61807;48.384;-4.386;2023-07-13T13:41:14;27.08;56.32
73547;SHT30;61807;48.384;-4.386;2023-07-13T13:43:40;27.06;56.46
73547;SHT30;61807;48.384;-4.386;2023-07-13T13:46:15;26.95;56.34
73547;SHT30;61807;48.384;-4.386;2023-07-13T13:48:41;26.84;57.08
73547;SHT30;61807;48.384;-4.386;2023-07-13T13:51:18;26.61;57.44
73547;SHT30;61807;48.384;-4.386;2023-07-13T13:53:45;26.37;57.32
73547;SHT30;61807;48.384;-4.386;2023-07-13T13:56:12;26.17;58.29
73547;SHT30;61807;48.384;-4.386;2023-07-13T13:58:37;25.96;57.76
73547;SHT30;61807;48.384;-4.386;2023-07-13T14:01:03;25.83;58.40
73547;SHT30;61807;48.384;-4.386;2023-07-13T14:03:33;25.83;57.35
73547;SHT30;61807;48.384;-4.386;2023-07-13T14:05:58;25.83;57.78
73547;SHT30;61807;48.384;-4.386;2023-07-13T14:08:24;25.80;57.74
73547;SHT30;61807;48.384;-4.386;2023-07-13T14:10:53;25.71;57.55
73547;SHT30;61807;48.384;-4.386;2023-07-13T14:13:24;25.55;57.76
73547;SHT30;61807;48.384;-4.386;2023-07-13T14:15:52;25.42;58.07
73547;SHT30;61807;48.384;-4.386;2023-07-13T14:18:18;25.24;58.32
73547;SHT30;61807;48.384;-4.386;2023-07-13T14:20:45;25.14;59.03
73547;SHT30;61807;48.384;-4.386;2023-07-13T14:23:12;25.07;59.59
73547;SHT30;61807;48.384;-4.386;2023-07-13T14:25:38;24.98;59.81
73547;SHT30;61807;48.384;-4.386;2023-07-13T14:28:17;24.94;59.23
73547;SHT30;61807;48.384;-4.386;2023-07-13T14:30:43;24.86;58.64
73547;SHT30;61807;48.384;-4.386;2023-07-13T14:33:10;24.83;58.70
73547;SHT30;61807;48.384;-4.386;2023-07-13T14:35:36;24.79;59.19
73547;SHT30;61807;48.384;-4.386;2023-07-13T14:38:03;24.72;59.84
73547;SHT30;61807;48.384;-4.386;2023-07-13T14:40:30;24.70;59.25
73547;SHT30;61807;48.384;-4.386;2023-07-13T14:42:57;24.64;59.33
73547;SHT30;61807;48.384;-4.386;2023-07-13T14:45:22;24.55;59.75
73547;SHT30;61807;48.384;-4.386;2023-07-13T14:47:49;24.49;59.80
73547;SHT30;61807;48.384;-4.386;2023-07-13T14:50:26;24.49;60.33
73547;SHT30;61807;48.384;-4.386;2023-07-13T14:52:55;24.52;60.37
73547;SHT30;61807;48.384;-4.386;2023-07-13T14:55:20;24.53;59.97
73547;SHT30;61807;48.384;-4.386;2023-07-13T14:57:48;24.52;60.27
73547;SHT30;61807;48.384;-4.386;2023-07-13T15:00:18;24.53;60.55
73547;SHT30;61807;48.384;-4.386;2023-07-13T15:02:47;24.60;60.66
73547;SHT30;61807;48.384;-4.386;2023-07-13T15:05:16;24.60;60.54
73547;SHT30;61807;48.384;-4.386;2023-07-13T15:07:42;24.63;60.22
73547;SHT30;61807;48.384;-4.386;2023-07-13T15:10:18;24.76;60.77
73547;SHT30;61807;48.384;-4.386;2023-07-13T15:12:44;24.93;60.02
73547;SHT30;61807;48.384;-4.386;2023-07-13T15:15:10;25.04;60.11
73547;SHT30;61807;48.384;-4.386;2023-07-13T15:17:41;25.10;59.84
73547;SHT30;61807;48.384;-4.386;2023-07-13T15:20:23;25.03;59.78
73547;SHT30;61807;48.384;-4.386;2023-07-13T15:22:51;24.93;59.33
73547;SHT30;61807;48.384;-4.386;2023-07-13T15:25:19;24.83;59.80
73547;SHT30;61807;48.384;-4.386;2023-07-13T15:27:45;24.80;60.09
73547;SHT30;61807;48.384;-4.386;2023-07-13T15:30:11;24.73;59.97
73547;SHT30;61807;48.384;-4.386;2023-07-13T15:32:37;24.60;59.75
73547;SHT30;61807;48.384;-4.386;2023-07-13T15:35:03;24.53;59.91
73547;SHT30;61807;48.384;-4.386;2023-07-13T15:37:29;24.48;60.09
73547;SHT30;61807;48.384;-4.386;2023-07-13T15:39:54;24.37;60.39
73547;SHT30;61807;48.384;-4.386;2023-07-13T15:42:20;24.33;59.98
73547;SHT30;61807;48.384;-4.386;2023-07-13T15:44:47;24.26;59.77
73547;SHT30;61807;48.384;-4.386;2023-07-13T15:47:13;24.22;59.98
73547;SHT30;61807;48.384;-4.386;2023-07-13T15:49:40;24.24;60.11
73547;SHT30;61807;48.384;-4.386;2023-07-13T15:52:17;24.25;60.37
73547;SHT30;61807;48.384;-4.386;2023-07-13T15:54:44;24.24;60.19